• Join FlightAware (Why Join?)
  • Login
  • US Flag 
06:45PM EDT


 

Airport Tracker/Info


-or-


 

Live Flight TrackerFlight Track Log ✈ AWE3417 ✈ 19-Apr-2013 ✈ KDCA - KCMH

Flight Track Log - Related Links

Times and Time Zones

All times are in EDT time to prevent confusion due to time zone crossing. See the AWE3417 flight status page for this flight to view local times or setup timezone preferences in your user account.

Time Position Orientation Groundspeed Altitude Reporting Facility
EDT Latitude Longitude Course Direction KTS MPH feet Rate Location/Type
08:21PM 38.8167 -77.0333 270° West 161 185 2,100  Level Potomac TRACON
08:22PM 38.7500 -77.0500 191° South 220 253 4,900 3,000 Climbing Potomac TRACON
08:23PM 38.9667 -78.7062 270° West  Level FlightAware Approximate
08:23PM 38.7667 -77.1333 284° West 250 288 8,400  Level Potomac TRACON
08:24PM 38.9833 -79.2748 270° West  Level FlightAware Approximate
08:24PM 38.7833 -77.2167 284° West 259 298 11,100  Level Potomac TRACON
08:25PM 38.9943 -79.8445 272° West  Level FlightAware Approximate
08:25PM 38.8000 -77.3167 282° West 293 337 13,400  Level Potomac TRACON
08:26PM 39.0000 -80.4143 270° West  Level FlightAware Approximate
08:26PM 38.8167 -77.4167 282° West 305 351 16,000  Level Potomac TRACON
08:27PM 38.8500 -77.5333 290° West 322 371 17,000 480 Climbing Potomac TRACON
08:28PM 38.8667 -77.6500 280° West 316 364 17,000  Level Potomac TRACON
08:28PM 38.8719 -77.7086 277° West 315 362 17,000  Level Washington Center
08:29PM 38.8869 -77.7919 283° West 308 354 17,000 300 Level Washington Center
08:30PM 38.9100 -77.9072 284° West 300 345 17,700 1,200 Climbing Washington Center
08:31PM 38.9622 -78.0050 305° West 315 362 19,400 1,920 Climbing Washington Center
08:32PM 38.9994 -78.1131 294° West 336 387 21,600 1,800 Climbing Washington Center
08:33PM 39.0075 -78.2336 275° West 336 387 23,000 1,620 Climbing Washington Center
08:34PM 39.0128 -78.3592 273° West 345 397 24,900 1,800 Climbing Washington Center
08:35PM 39.0203 -78.4878 274° West 357 411 26,600 1,020 Climbing Washington Center
08:36PM 39.0275 -78.6192 274° West 367 422 27,000 420 Climbing Washington Center
08:37PM 39.0331 -78.7261 274° West 367 422 27,500 960 Climbing Washington Center
08:38PM 39.0414 -78.8869 274° West 367 422 29,000 1,200 Climbing Washington Center
08:39PM 39.0478 -79.0261 273° West 378 435 30,000 480 Climbing Washington Center
08:40PM 39.0561 -79.1708 274° West 391 450 30,000  Level Washington Center
08:41PM 39.0647 -79.2969 275° West 402 463 30,000  Level Washington Center
08:42PM 39.0689 -79.4336 272° West 402 463 30,000  Level Washington Center
08:43PM 39.0769 -79.5678 274° West 395 455 30,000 480 Level Washington Center
08:44PM 39.0811 -79.6964 272° West 382 440 31,000 480 Climbing Washington Center
08:45PM 39.0869 -79.8278 273° West 376 433 31,000  Level Washington Center
08:46PM 39.0925 -79.9617 273° West 371 427 31,000  Level Washington Center
08:48PM 39.0969 -80.2103 271° West 393 452 31,000  Level Indianapolis Center
08:49PM 39.1047 -80.3831 273° West 401 461 31,000  Level Indianapolis Center
08:50PM 39.1100 -80.5236 273° West 397 457 31,000 -720 Level Indianapolis Center
08:51PM 39.1228 -80.6614 277° West 392 451 29,600 -1,500 Descending Indianapolis Center
08:52PM 39.1631 -80.7986 291° West 407 468 28,000 -1,920 Descending Indianapolis Center
08:53PM 39.1978 -80.9186 291° West 365 420 25,700 -2,400 Descending Indianapolis Center
08:54PM 39.2281 -81.0275 290° West 330 380 23,100 -1,920 Descending Indianapolis Center
08:55PM 39.2589 -81.1378 290° West 329 379 21,900 -1,200 Descending Indianapolis Center
08:56PM 39.2878 -81.2403 290° West 310 357 20,700 -1,080 Descending Indianapolis Center
08:57PM 39.3164 -81.3433 290° West 306 352 19,700 -1,080 Descending Indianapolis Center
08:59PM 39.3492 -81.4644 289° West 300 345 18,600 -1,080 Descending Indianapolis Center
09:00PM 39.3783 -81.5672 290° West 305 351 17,600 -1,020 Descending Indianapolis Center
09:01PM 39.4078 -81.6725 290° West 311 358 16,600 -1,020 Descending Indianapolis Center
09:02PM 39.4361 -81.7778 289° West 311 358 15,600 -1,020 Descending Indianapolis Center
09:03PM 39.4636 -81.8814 289° West 305 351 14,600 -1,020 Descending Indianapolis Center
09:03PM 39.4822 -81.9469 290° West 301 346 14,000 -900 Descending Indianapolis Center
09:04PM 39.4917 -81.9819 289° West 299 344 13,700 -1,020 Descending Indianapolis Center
09:04PM 39.5111 -82.0550 289° West 296 341 13,000 -1,020 Descending Indianapolis Center
09:05PM 39.5261 -82.0789 309° West 301 346 12,700 -1,140 Descending Indianapolis Center
09:05PM 39.5667 -82.1392 311° West 308 354 11,900 -1,380 Descending Indianapolis Center
09:06PM 39.5897 -82.1706 314° West 306 352 11,300 -900 Descending Indianapolis Center
09:06PM 39.6225 -82.2206 310° West 306 352 11,000 -300 Descending Indianapolis Center
09:07PM 39.6456 -82.2533 312° West 303 349 11,000 -600 Level Indianapolis Center
09:07PM 39.6758 -82.3017 309° West 298 343 10,400 -1,200 Descending Indianapolis Center
09:08PM 39.6975 -82.3303 315° West 285 328 9,800 -1,380 Descending Indianapolis Center
09:08PM 39.7258 -82.3719 311° West 255 293 9,000 -1,380 Descending Indianapolis Center
09:09PM 39.7450 -82.4011 311° West 262 302 8,400 -1,320 Descending Indianapolis Center
09:09PM 39.7736 -82.4422 312° West 256 295 7,700 -1,320 Descending Indianapolis Center
09:10PM 39.7928 -82.4703 312° West 255 293 7,100 -1,200 Descending Indianapolis Center
09:10PM 39.8175 -82.5092 310° West 249 287 6,500 -1,200 Descending Indianapolis Center
09:11PM 39.8367 -82.5364 313° West 244 281 5,900 -1,320 Descending Indianapolis Center
09:11PM 39.8736 -82.5478 347° North 251 289 5,200 -900 Descending Indianapolis Center
09:12PM 39.9067 -82.5442 North 259 298 5,000 -900 Descending Indianapolis Center
09:12PM 39.9469 -82.5450 359° North 240 276 4,300 -1,200 Descending Indianapolis Center
09:13PM 39.9683 -82.5561 338° Northwest 249 287 3,800 -1,020 Descending Indianapolis Center
09:13PM 39.9750 -82.5969 282° West 182 209 3,300 -720 Descending Indianapolis Center
09:14PM 39.9769 -82.6197 276° West 200 230 3,100 -420 Descending Indianapolis Center
09:14PM 39.9858 -82.6553 288° West 161 185 2,900 -300 Descending Indianapolis Center
09:15PM 39.9900 -82.6781 283° West 176 203 2,800 -240 Descending Indianapolis Center
09:15PM 39.9925 -82.7131 275° West 163 188 2,700 -300 Descending Indianapolis Center
09:16PM 39.9942 -82.7347 276° West 164 189 2,500 -420 Descending Indianapolis Center